Terminal Aerodrome Forecast
Issued by NWS

Home | Current Version | Previous Version | Text Only | Print | Product List | Glossary On
Versions: 1 2 3 4 5 6 7 8 9 10 11 12 13 14 15 16 17 18 19 20 21 22 23 24 25 26 27 28 29 30 31 32 33 34 35 36 37 38
000
FTAK31 PAFA 200531
TAFASC
TAF
PASC 200531Z 2006/2106 36006KT P6SM OVC007
     FM201200 04005KT 3SM BR OVC007
     FM201800 04005KT P6SM BKN007
     FM202100 05006KT P6SM BKN015=

USA.gov is the U.S. government's official web portal to all federal, state and local government web resources and services.